地図

経路データ

SID SEASON NUMBER BASIN SUBBASIN NAME ISO_TIME NATURE LAT LON WMO_WIND WMO_PRES WMO_AGENCY TRACK_TYPE DIST2LAND LANDFALL IFLAG USA_AGENCY USA_ATCF_ID USA_LAT USA_LON USA_RECORD USA_STATUS USA_WIND USA_PRES USA_SSHS USA_R34_NE USA_R34_SE USA_R34_SW USA_R34_NW USA_R50_NE USA_R50_SE USA_R50_SW USA_R50_NW USA_R64_NE USA_R64_SE USA_R64_SW USA_R64_NW USA_POCI USA_ROCI USA_RMW USA_EYE TOKYO_LAT TOKYO_LON TOKYO_GRADE TOKYO_WIND TOKYO_PRES TOKYO_R50_DIR TOKYO_R50_LONG TOKYO_R50_SHORT TOKYO_R30_DIR TOKYO_R30_LONG TOKYO_R30_SHORT TOKYO_LAND CMA_LAT CMA_LON CMA_CAT CMA_WIND CMA_PRES HKO_LAT HKO_LON HKO_CAT HKO_WIND HKO_PRES NEWDELHI_LAT NEWDELHI_LON NEWDELHI_GRADE NEWDELHI_WIND NEWDELHI_PRES NEWDELHI_CI NEWDELHI_DP NEWDELHI_POCI REUNION_LAT REUNION_LON REUNION_TYPE REUNION_WIND REUNION_PRES REUNION_TNUM REUNION_CI REUNION_RMW REUNION_R34_NE REUNION_R34_SE REUNION_R34_SW REUNION_R34_NW REUNION_R50_NE REUNION_R50_SE REUNION_R50_SW REUNION_R50_NW REUNION_R64_NE REUNION_R64_SE REUNION_R64_SW REUNION_R64_NW BOM_LAT BOM_LON BOM_TYPE BOM_WIND BOM_PRES BOM_TNUM BOM_CI BOM_RMW BOM_R34_NE BOM_R34_SE BOM_R34_SW BOM_R34_NW BOM_R50_NE BOM_R50_SE BOM_R50_SW BOM_R50_NW BOM_R64_NE BOM_R64_SE BOM_R64_SW BOM_R64_NW BOM_ROCI BOM_POCI BOM_EYE BOM_POS_METHOD BOM_PRES_METHOD NADI_LAT NADI_LON NADI_CAT NADI_WIND NADI_PRES WELLINGTON_LAT WELLINGTON_LON WELLINGTON_WIND WELLINGTON_PRES DS824_LAT DS824_LON DS824_STAGE DS824_WIND DS824_PRES TD9636_LAT TD9636_LON TD9636_STAGE TD9636_WIND TD9636_PRES TD9635_LAT TD9635_LON TD9635_WIND TD9635_PRES TD9635_ROCI NEUMANN_LAT NEUMANN_LON NEUMANN_CLASS NEUMANN_WIND NEUMANN_PRES MLC_LAT MLC_LON MLC_CLASS MLC_WIND MLC_PRES USA_GUST BOM_GUST BOM_GUST_PER REUNION_GUST REUNION_GUST_PER USA_SEAHGT USA_SEARAD_NE USA_SEARAD_SE USA_SEARAD_SW USA_SEARAD_NW STORM_SPEED STORM_DIR
1993166N06131 1993 34 WP MM NOT_NAMED 1993-06-15 06:00:00 NR 6.30000 131.100 main 502 502 O_____________ jtwc_wp WP071993 6.30000 131.100 15 -1 3 0
1993166N06131 1993 34 WP MM NOT_NAMED 1993-06-15 09:00:00 NR 6.43750 131.110 main 507 503 P_____________ WP071993 6.43750 131.110 15 -1 3 0
1993166N06131 1993 34 WP MM NOT_NAMED 1993-06-15 12:00:00 NR 6.60000 131.100 main 503 500 O_____________ jtwc_wp WP071993 6.60000 131.100 15 -1 4 351
1993166N06131 1993 34 WP MM NOT_NAMED 1993-06-15 15:00:00 NR 6.80000 131.058 main 500 487 P_____________ WP071993 6.80000 131.058 15 -1 4 347
1993166N06131 1993 34 WP MM NOT_NAMED 1993-06-15 18:00:00 NR 7.00000 131.000 main 487 486 O_____________ jtwc_wp WP071993 7.00000 131.000 15 -1 4 344
1993166N06131 1993 34 WP MM NOT_NAMED 1993-06-15 21:00:00 NR 7.15000 130.950 main 485 474 P_____________ WP071993 7.15000 130.950 17 -1 3 343
1993166N06131 1993 34 WP MM NOT_NAMED 1993-06-16 00:00:00 NR 7.30000 130.900 main 474 474 O_____________ jtwc_wp WP071993 7.30000 130.900 20 -1 4 344
1993166N06131 1993 34 WP MM NOT_NAMED 1993-06-16 03:00:00 NR 7.49250 130.850 main 474 463 P_____________ WP071993 7.49250 130.850 20 -1 4 347
1993166N06131 1993 34 WP MM NOT_NAMED 1993-06-16 06:00:00 NR 7.70000 130.800 main 463 463 O_____________ jtwc_wp WP071993 7.70000 130.800 20 -1 4 348
1993166N06131 1993 34 WP MM NOT_NAMED 1993-06-16 09:00:00 NR 7.90000 130.757 main 463 452 P_____________ WP071993 7.90000 130.757 20 -1 4 347
1993166N06131 1993 34 WP MM NOT_NAMED 1993-06-16 12:00:00 NR 8.10000 130.700 main 454 444 O_____________ jtwc_wp WP071993 8.10000 130.700 20 -1 4 340
1993166N06131 1993 34 WP MM NOT_NAMED 1993-06-16 15:00:00 NR 8.30000 130.607 main 445 436 P_____________ WP071993 8.30000 130.607 20 -1 4 334
1993166N06131 1993 34 WP MM NOT_NAMED 1993-06-16 18:00:00 NR 8.50000 130.500 main 438 430 O_____________ jtwc_wp WP071993 8.50000 130.500 20 -1 4 333
1993166N06131 1993 34 WP MM NOT_NAMED 1993-06-16 21:00:00 NR 8.69250 130.400 main 433 433 P_____________ WP071993 8.69250 130.400 22 -1 5 353
1993166N06131 1993 34 WP MM NOT_NAMED 1993-06-17 00:00:00 TS 9.00000 130.440 main 443 436 O_O___________ jtwc_wp WP071993 8.90000 130.300 25 -1 9.40000 131.000 0 19 1008 4 348
1993166N06131 1993 34 WP MM NOT_NAMED 1993-06-17 03:00:00 TS 9.12585 130.309 main 436 419 P_P___________ WP071993 9.14999 130.207 25 -1 9.07756 130.512 0 19 1008 4 301
1993166N06131 1993 34 WP MM NOT_NAMED 1993-06-17 06:00:00 TS 9.22857 130.057 main 419 379 O_O___________ jtwc_wp WP071993 9.40000 130.100 25 -1 9.00000 130.000 0 19 1008 7 300
1993166N06131 1993 34 WP MM NOT_NAMED 1993-06-17 09:00:00 TS 9.45878 129.714 main 381 355 P_P___________ WP071993 9.59999 129.965 25 -1 9.31756 129.463 0 21 1007 9 311
1993166N06131 1993 34 WP MM NOT_NAMED 1993-06-17 12:00:00 TS 9.80000 129.400 main 357 341 O_O___________ jtwc_wp WP071993 9.80000 129.800 25 -1 9.80000 129.000 1 23 1006 9 320
1993166N06131 1993 34 WP MM NOT_NAMED 1993-06-17 15:00:00 TS 10.1112 129.167 main 344 330 P_P___________ WP071993 10.0500 129.622 25 -1 10.1724 128.712 1 23 1006 8 324
1993166N06131 1993 34 WP MM NOT_NAMED 1993-06-17 18:00:00 TS 10.4000 128.950 main 335 315 O_O___________ jtwc_wp WP071993 10.3000 129.400 25 -1 10.5000 128.500 1 23 1006 7 319
1993166N06131 1993 34 WP MM NOT_NAMED 1993-06-17 21:00:00 TS 10.6437 128.694 main 315 284 P_P___________ WP071993 10.5000 129.130 25 -1 10.7875 128.257 1 23 1006 7 310
1993166N06131 1993 34 WP MM NOT_NAMED 1993-06-18 00:00:00 TS 10.8500 128.400 main 284 251 O_O___________ jtwc_wp WP071993 10.7000 128.800 25 -1 11.0000 128.000 1 23 1006 7 302
1993166N06131 1993 34 WP MM NOT_NAMED 1993-06-18 03:00:00 TS 11.0287 128.072 main 251 208 P_P___________ WP071993 10.9425 128.415 27 -1 11.1149 127.730 1 26 1005 8 297
1993166N06131 1993 34 WP MM NOT_NAMED 1993-06-18 06:00:00 TS 11.2000 127.700 main 208 169 O_O___________ jtwc_wp WP071993 11.2000 128.000 30 -1 11.2000 127.400 1 29 1004 8 295
1993166N06131 1993 34 WP MM NOT_NAMED 1993-06-18 09:00:00 TS 11.3849 127.294 main 169 137 P_P___________ WP071993 11.4498 127.630 30 -1 11.3201 126.957 1 29 1004 9 296
1993166N06131 1993 34 WP MM NOT_NAMED 1993-06-18 12:00:00 TS 11.6000 126.850 main 137 98 O_O___________ jtwc_wp WP071993 11.7000 127.200 30 -1 11.5000 126.500 1 29 1004 10 298
1993166N06131 1993 34 WP MM NOT_NAMED 1993-06-18 15:00:00 TS 11.8637 126.382 main 100 44 P_P___________ WP071993 11.9500 126.637 30 -1 11.7774 126.128 1 29 1004 11 301
1993166N06131 1993 34 WP MM NOT_NAMED 1993-06-18 18:00:00 TS 12.1500 125.900 main 43 15 O_O___________ jtwc_wp WP071993 12.2000 126.000 30 -1 12.1000 125.800 1 29 1004 11 300
1993166N06131 1993 34 WP MM NOT_NAMED 1993-06-18 21:00:00 TS 12.4099 125.429 main 10 0 P_P___________ WP071993 12.4424 125.357 27 -1 12.3774 125.500 1 26 1006 11 301
1993166N06131 1993 34 WP MM NOT_NAMED 1993-06-19 00:00:00 TS 12.7000 124.950 main 22 22 O_O___________ jtwc_wp WP071993 12.7000 124.700 25 -1 12.7000 125.200 1 23 1008 11 306
1993166N06131 1993 34 WP MM NOT_NAMED 1993-06-19 03:00:00 TS 13.0785 124.487 main 44 15 P_P___________ WP071993 12.9923 124.057 25 -1 13.1646 124.917 1 23 1008 12 308
1993166N06131 1993 34 WP MM NOT_NAMED 1993-06-19 06:00:00 TS 13.4500 123.950 main 15 0 O_O___________ jtwc_wp WP071993 13.3000 123.400 25 -1 13.6000 124.500 1 23 1008 14 298
1993166N06131 1993 34 WP MM NOT_NAMED 1993-06-19 09:00:00 TS 13.7189 123.240 main 0 0 P_P___________ WP071993 13.5924 122.707 25 -1 13.8455 123.772 1 23 1008 15 290
1993166N06131 1993 34 WP MM NOT_NAMED 1993-06-19 12:00:00 TS 13.9500 122.500 main 0 0 O_O___________ jtwc_wp WP071993 13.9000 122.000 25 -1 14.0000 123.000 1 23 1008 14 290
1993166N06131 1993 34 WP MM NOT_NAMED 1993-06-19 15:00:00 TS 14.2149 121.844 main 10 0 P_P___________ WP071993 14.2498 121.300 22 -1 14.1799 122.388 1 23 1008 13 293
1993166N06131 1993 34 WP MM NOT_NAMED 1993-06-19 18:00:00 TS 14.4500 121.300 main 0 0 O_O___________ jtwc_wp WP071993 14.6000 120.600 20 -1 14.3000 122.000 1 23 1008 10 293
1993166N06131 1993 34 WP MM NOT_NAMED 1993-06-19 21:00:00 TS 14.5811 120.935 main 10 0 P_P___________ WP071993 14.8924 119.892 20 -1 14.2698 121.977 1 21 1008 7 294
1993166N06131 1993 34 WP MM NOT_NAMED 1993-06-20 00:00:00 TS 14.7500 120.600 main 0 0 O_O___________ jtwc_wp WP071993 15.2000 119.200 20 -1 14.3000 122.000 0 19 1008 9 303
1993166N06131 1993 34 WP MM NOT_NAMED 1993-06-20 03:00:00 TS 15.0753 120.143 main 0 0 P_P___________ WP071993 15.5778 118.541 20 -1 14.5728 121.746 0 19 1007 12 308
1993166N06131 1993 34 WP MM NOT_NAMED 1993-06-20 06:00:00 TS 15.5000 119.600 main 34 O_O___________ jtwc_wp WP071993 16.0000 117.900 20 -1 15.0000 121.300 0 19 1006 14 309

デジタル台風データ・検索

IBTrACS Databaseについて

本データベースは、米国NOAAが公開する1842年以降の世界の熱帯低気圧のベストトラックデータアーカイブInternational Best Track Archive for Climate Stewardship (IBTrACS)を、ウェブで閲覧しやすい形式に変換したものです。

最終更新日:2021-10-25